sensor_id;sensor_type;location;lat;lon;timestamp;pressure;altitude;pressure_sealevel;temperature;humidity
12969;BME280;6549;53.128;8.182;2024-01-30T00:02:21;102435.00;;;6.05;100.00
12969;BME280;6549;53.128;8.182;2024-01-30T00:05:21;102435.94;;;6.01;100.00
12969;BME280;6549;53.128;8.182;2024-01-30T00:08:22;102438.50;;;5.97;100.00
12969;BME280;6549;53.128;8.182;2024-01-30T00:11:22;102437.06;;;6.00;100.00
12969;BME280;6549;53.128;8.182;2024-01-30T00:14:23;102439.63;;;5.96;100.00
12969;BME280;6549;53.128;8.182;2024-01-30T00:17:23;102433.81;;;5.98;100.00
12969;BME280;6549;53.128;8.182;2024-01-30T00:20:25;102421.31;;;5.97;100.00
12969;BME280;6549;53.128;8.182;2024-01-30T00:23:25;102429.00;;;5.95;100.00
12969;BME280;6549;53.128;8.182;2024-01-30T00:26:26;102423.06;;;5.93;100.00
12969;BME280;6549;53.128;8.182;2024-01-30T00:29:26;102411.81;;;5.94;100.00
12969;BME280;6549;53.128;8.182;2024-01-30T00:32:30;102419.53;;;5.92;100.00
12969;BME280;6549;53.128;8.182;2024-01-30T00:35:30;102419.19;;;5.94;100.00
12969;BME280;6549;53.128;8.182;2024-01-30T00:38:31;102411.66;;;5.91;100.00
12969;BME280;6549;53.128;8.182;2024-01-30T00:41:31;102412.63;;;5.95;100.00
12969;BME280;6549;53.128;8.182;2024-01-30T00:44:35;102413.75;;;5.94;100.00
12969;BME280;6549;53.128;8.182;2024-01-30T00:47:35;102410.38;;;5.88;100.00
12969;BME280;6549;53.128;8.182;2024-01-30T00:50:35;102412.88;;;5.84;100.00
12969;BME280;6549;53.128;8.182;2024-01-30T00:53:36;102404.91;;;5.88;100.00
12969;BME280;6549;53.128;8.182;2024-01-30T00:56:36;102404.91;;;5.88;100.00
12969;BME280;6549;53.128;8.182;2024-01-30T00:59:36;102406.13;;;5.82;100.00
12969;BME280;6549;53.128;8.182;2024-01-30T01:02:37;102396.19;;;5.86;100.00
12969;BME280;6549;53.128;8.182;2024-01-30T01:05:37;102405.94;;;5.78;100.00
12969;BME280;6549;53.128;8.182;2024-01-30T01:08:37;102398.25;;;5.80;100.00
12969;BME280;6549;53.128;8.182;2024-01-30T01:11:38;102398.25;;;5.80;100.00
12969;BME280;6549;53.128;8.182;2024-01-30T01:14:38;102392.31;;;5.78;100.00
12969;BME280;6549;53.128;8.182;2024-01-30T01:17:39;102400.31;;;5.75;100.00
12969;BME280;6549;53.128;8.182;2024-01-30T01:20:40;102402.72;;;5.76;100.00
12969;BME280;6549;53.128;8.182;2024-01-30T01:23:40;102391.47;;;5.69;100.00
12969;BME280;6549;53.128;8.182;2024-01-30T01:26:40;102395.94;;;5.65;100.00
12969;BME280;6549;53.128;8.182;2024-01-30T01:29:41;102397.16;;;5.59;100.00
12969;BME280;6549;53.128;8.182;2024-01-30T01:32:41;102399.88;;;5.59;100.00
12969;BME280;6549;53.128;8.182;2024-01-30T01:35:49;102388.94;;;5.51;100.00
12969;BME280;6549;53.128;8.182;2024-01-30T01:38:50;102403.19;;;5.48;100.00
12969;BME280;6549;53.128;8.182;2024-01-30T01:41:50;102400.66;;;5.51;100.00
12969;BME280;6549;53.128;8.182;2024-01-30T01:44:51;102399.47;;;5.43;100.00
12969;BME280;6549;53.128;8.182;2024-01-30T01:47:51;102410.81;;;5.37;100.00
12969;BME280;6549;53.128;8.182;2024-01-30T01:50:52;102402.50;;;5.42;100.00
12969;BME280;6549;53.128;8.182;2024-01-30T01:53:53;102397.13;;;5.28;100.00
12969;BME280;6549;53.128;8.182;2024-01-30T01:56:54;102390.56;;;5.29;100.00
12969;BME280;6549;53.128;8.182;2024-01-30T01:59:55;102389.75;;;5.29;100.00
12969;BME280;6549;53.128;8.182;2024-01-30T02:02:56;102374.31;;;5.24;100.00
12969;BME280;6549;53.128;8.182;2024-01-30T02:05:56;102369.50;;;5.21;100.00
12969;BME280;6549;53.128;8.182;2024-01-30T02:08:57;102358.03;;;5.11;100.00
12969;BME280;6549;53.128;8.182;2024-01-30T02:11:57;102365.09;;;5.12;100.00
12969;BME280;6549;53.128;8.182;2024-01-30T02:14:57;102363.59;;;5.06;100.00
12969;BME280;6549;53.128;8.182;2024-01-30T02:17:58;102359.25;;;5.05;100.00
12969;BME280;6549;53.128;8.182;2024-01-30T02:20:59;102357.03;;;5.07;100.00
12969;BME280;6549;53.128;8.182;2024-01-30T02:24:04;102361.50;;;5.03;100.00
12969;BME280;6549;53.128;8.182;2024-01-30T02:27:05;102360.06;;;5.05;100.00
12969;BME280;6549;53.128;8.182;2024-01-30T02:30:06;102352.41;;;5.07;100.00
12969;BME280;6549;53.128;8.182;2024-01-30T02:33:06;102348.13;;;5.15;100.00
12969;BME280;6549;53.128;8.182;2024-01-30T02:36:07;102348.31;;;5.18;100.00
12969;BME280;6549;53.128;8.182;2024-01-30T02:39:07;102339.81;;;5.20;100.00
12969;BME280;6549;53.128;8.182;2024-01-30T02:42:08;102343.06;;;5.22;100.00
12969;BME280;6549;53.128;8.182;2024-01-30T02:45:09;102332.28;;;5.17;100.00
12969;BME280;6549;53.128;8.182;2024-01-30T02:48:09;102325.50;;;5.14;100.00
12969;BME280;6549;53.128;8.182;2024-01-30T02:51:10;102329.56;;;5.17;100.00
12969;BME280;6549;53.128;8.182;2024-01-30T02:54:10;102319.13;;;5.19;100.00
12969;BME280;6549;53.128;8.182;2024-01-30T02:57:10;102325.50;;;5.14;100.00
12969;BME280;6549;53.128;8.182;2024-01-30T03:00:11;102323.78;;;5.18;100.00
12969;BME280;6549;53.128;8.182;2024-01-30T03:03:11;102322.50;;;5.16;100.00
12969;BME280;6549;53.128;8.182;2024-01-30T03:06:12;102329.38;;;5.13;100.00
12969;BME280;6549;53.128;8.182;2024-01-30T03:09:12;102320.28;;;5.18;100.00
12969;BME280;6549;53.128;8.182;2024-01-30T03:12:13;102319.25;;;5.14;100.00
12969;BME280;6549;53.128;8.182;2024-01-30T03:15:14;102327.94;;;5.16;100.00
12969;BME280;6549;53.128;8.182;2024-01-30T03:18:14;102318.66;;;5.17;100.00
12969;BME280;6549;53.128;8.182;2024-01-30T03:21:14;102316.59;;;5.22;100.00
12969;BME280;6549;53.128;8.182;2024-01-30T03:24:15;102310.34;;;5.22;100.00
12969;BME280;6549;53.128;8.182;2024-01-30T03:27:15;102305.88;;;5.26;100.00
12969;BME280;6549;53.128;8.182;2024-01-30T03:30:15;102303.03;;;5.31;100.00
12969;BME280;6549;53.128;8.182;2024-01-30T03:33:16;102312.69;;;5.37;100.00
12969;BME280;6549;53.128;8.182;2024-01-30T03:36:16;102308.19;;;5.41;100.00
12969;BME280;6549;53.128;8.182;2024-01-30T03:39:17;102297.63;;;5.39;100.00
12969;BME280;6549;53.128;8.182;2024-01-30T03:42:17;102295.88;;;5.43;100.00
12969;BME280;6549;53.128;8.182;2024-01-30T03:45:17;102288.84;;;5.51;100.00
12969;BME280;6549;53.128;8.182;2024-01-30T03:48:20;102284.69;;;5.54;100.00
12969;BME280;6549;53.128;8.182;2024-01-30T03:51:21;102284.69;;;5.54;100.00
12969;BME280;6549;53.128;8.182;2024-01-30T03:54:21;102284.25;;;5.60;100.00
12969;BME280;6549;53.128;8.182;2024-01-30T03:57:21;102264.53;;;5.63;100.00
12969;BME280;6549;53.128;8.182;2024-01-30T04:00:22;102271.72;;;5.59;100.00
12969;BME280;6549;53.128;8.182;2024-01-30T04:03:22;102269.50;;;5.61;100.00
12969;BME280;6549;53.128;8.182;2024-01-30T04:06:22;102267.25;;;5.63;100.00
12969;BME280;6549;53.128;8.182;2024-01-30T04:09:23;102264.34;;;5.60;100.00
12969;BME280;6549;53.128;8.182;2024-01-30T04:12:23;102264.66;;;5.58;100.00
12969;BME280;6549;53.128;8.182;2024-01-30T04:15:23;102255.38;;;5.59;100.00
12969;BME280;6549;53.128;8.182;2024-01-30T04:18:24;102260.97;;;5.63;100.00
12969;BME280;6549;53.128;8.182;2024-01-30T04:21:24;102256.16;;;5.60;100.00
12969;BME280;6549;53.128;8.182;2024-01-30T04:24:24;102247.03;;;5.64;100.00
12969;BME280;6549;53.128;8.182;2024-01-30T04:27:25;102248.97;;;5.64;100.00
12969;BME280;6549;53.128;8.182;2024-01-30T04:30:25;102249.28;;;5.62;100.00
12969;BME280;6549;53.128;8.182;2024-01-30T04:33:25;102252.00;;;5.62;100.00
12969;BME280;6549;53.128;8.182;2024-01-30T04:36:26;102256.00;;;5.56;100.00
12969;BME280;6549;53.128;8.182;2024-01-30T04:39:26;102254.69;;;5.54;100.00
12969;BME280;6549;53.128;8.182;2024-01-30T04:42:26;102260.66;;;5.56;100.00
12969;BME280;6549;53.128;8.182;2024-01-30T04:45:27;102252.78;;;5.54;100.00
12969;BME280;6549;53.128;8.182;2024-01-30T04:48:27;102248.28;;;5.58;100.00
12969;BME280;6549;53.128;8.182;2024-01-30T04:51:27;102243.47;;;5.55;100.00
12969;BME280;6549;53.128;8.182;2024-01-30T04:54:28;102249.56;;;5.52;100.00
12969;BME280;6549;53.128;8.182;2024-01-30T04:57:28;102250.69;;;5.51;100.00
12969;BME280;6549;53.128;8.182;2024-01-30T05:00:29;102243.97;;;5.57;100.00
12969;BME280;6549;53.128;8.182;2024-01-30T05:03:33;102238.19;;;5.59;100.00
12969;BME280;6549;53.128;8.182;2024-01-30T05:06:33;102253.28;;;5.56;100.00
12969;BME280;6549;53.128;8.182;2024-01-30T05:09:34;102245.09;;;5.56;100.00
12969;BME280;6549;53.128;8.182;2024-01-30T05:12:34;102236.78;;;5.61;100.00
12969;BME280;6549;53.128;8.182;2024-01-30T05:15:34;102237.09;;;5.60;100.00
12969;BME280;6549;53.128;8.182;2024-01-30T05:18:35;102245.94;;;5.65;100.00
12969;BME280;6549;53.128;8.182;2024-01-30T05:21:35;102241.59;;;5.64;100.00
12969;BME280;6549;53.128;8.182;2024-01-30T05:24:36;102238.06;;;5.64;100.00
12969;BME280;6549;53.128;8.182;2024-01-30T05:27:37;102241.91;;;5.63;100.00
12969;BME280;6549;53.128;8.182;2024-01-30T05:30:37;102243.34;;;5.60;100.00
12969;BME280;6549;53.128;8.182;2024-01-30T05:33:37;102241.91;;;5.63;100.00
12969;BME280;6549;53.128;8.182;2024-01-30T05:36:38;102244.28;;;5.56;100.00
12969;BME280;6549;53.128;8.182;2024-01-30T05:39:38;102250.56;;;5.56;100.00
12969;BME280;6549;53.128;8.182;2024-01-30T05:42:38;102231.75;;;5.55;100.00
12969;BME280;6549;53.128;8.182;2024-01-30T05:45:39;102235.81;;;5.57;100.00
12969;BME280;6549;53.128;8.182;2024-01-30T05:48:39;102229.22;;;5.58;100.00
12969;BME280;6549;53.128;8.182;2024-01-30T05:51:39;102231.75;;;5.55;100.00
12969;BME280;6549;53.128;8.182;2024-01-30T05:54:40;102223.28;;;5.56;100.00
12969;BME280;6549;53.128;8.182;2024-01-30T05:57:40;102225.66;;;5.58;100.00
12969;BME280;6549;53.128;8.182;2024-01-30T06:00:41;102228.72;;;5.56;100.00
12969;BME280;6549;53.128;8.182;2024-01-30T06:03:41;102225.50;;;5.54;100.00
12969;BME280;6549;53.128;8.182;2024-01-30T06:06:43;102234.31;;;5.51;100.00
12969;BME280;6549;53.128;8.182;2024-01-30T06:09:43;102232.28;;;5.57;100.00
12969;BME280;6549;53.128;8.182;2024-01-30T06:12:44;102232.75;;;5.59;100.00
12969;BME280;6549;53.128;8.182;2024-01-30T06:15:44;102234.34;;;5.60;100.00
12969;BME280;6549;53.128;8.182;2024-01-30T06:18:44;102224.09;;;5.57;100.00
12969;BME280;6549;53.128;8.182;2024-01-30T06:21:45;102222.63;;;5.59;100.00
12969;BME280;6549;53.128;8.182;2024-01-30T06:24:45;102213.66;;;5.59;100.00
12969;BME280;6549;53.128;8.182;2024-01-30T06:27:48;102214.00;;;5.57;100.00
12969;BME280;6549;53.128;8.182;2024-01-30T06:30:48;102214.13;;;5.52;100.00
12969;BME280;6549;53.128;8.182;2024-01-30T06:33:49;102210.13;;;5.58;100.00
12969;BME280;6549;53.128;8.182;2024-01-30T06:36:50;102205.31;;;5.55;100.00
12969;BME280;6549;53.128;8.182;2024-01-30T06:39:50;102206.75;;;5.53;100.00
12969;BME280;6549;53.128;8.182;2024-01-30T06:42:51;102199.38;;;5.53;100.00
12969;BME280;6549;53.128;8.182;2024-01-30T06:45:51;102207.88;;;5.52;100.00
12969;BME280;6549;53.128;8.182;2024-01-30T06:48:52;102204.34;;;5.51;100.00
12969;BME280;6549;53.128;8.182;2024-01-30T06:51:52;102200.50;;;5.52;100.00
12969;BME280;6549;53.128;8.182;2024-01-30T06:54:52;102206.25;;;5.51;100.00
12969;BME280;6549;53.128;8.182;2024-01-30T06:57:53;102211.72;;;5.51;100.00
12969;BME280;6549;53.128;8.182;2024-01-30T07:00:54;102221.47;;;5.43;100.00
12969;BME280;6549;53.128;8.182;2024-01-30T07:03:54;102213.16;;;5.48;100.00
12969;BME280;6549;53.128;8.182;2024-01-30T07:06:55;102212.00;;;5.49;100.00
12969;BME280;6549;53.128;8.182;2024-01-30T07:09:55;102200.31;;;5.49;100.00
12969;BME280;6549;53.128;8.182;2024-01-30T07:13:00;102195.84;;;5.53;100.00
12969;BME280;6549;53.128;8.182;2024-01-30T07:16:01;102195.00;;;5.43;100.00
12969;BME280;6549;53.128;8.182;2024-01-30T07:19:01;102196.97;;;5.52;100.00
12969;BME280;6549;53.128;8.182;2024-01-30T07:22:01;102196.00;;;5.56;100.00
12969;BME280;6549;53.128;8.182;2024-01-30T07:25:02;102191.19;;;5.53;100.00
12969;BME280;6549;53.128;8.182;2024-01-30T07:28:02;102194.91;;;5.57;100.00
12969;BME280;6549;53.128;8.182;2024-01-30T07:31:03;102201.47;;;5.56;100.00
12969;BME280;6549;53.128;8.182;2024-01-30T07:34:03;102205.63;;;5.62;100.00
12969;BME280;6549;53.128;8.182;2024-01-30T07:37:04;102212.22;;;5.61;100.00
12969;BME280;6549;53.128;8.182;2024-01-30T07:40:04;102209.03;;;5.68;100.00
12969;BME280;6549;53.128;8.182;2024-01-30T07:43:05;102206.16;;;5.73;100.00
12969;BME280;6549;53.128;8.182;2024-01-30T07:46:05;102200.06;;;5.76;100.00
12969;BME280;6549;53.128;8.182;2024-01-30T07:49:06;102198.50;;;5.83;100.00
12969;BME280;6549;53.128;8.182;2024-01-30T07:52:06;102207.47;;;5.84;100.00
12969;BME280;6549;53.128;8.182;2024-01-30T07:55:07;102210.56;;;5.91;100.00
12969;BME280;6549;53.128;8.182;2024-01-30T07:58:08;102214.28;;;6.04;100.00
12969;BME280;6549;53.128;8.182;2024-01-30T08:01:08;102215.72;;;6.10;100.00
12969;BME280;6549;53.128;8.182;2024-01-30T08:04:09;102232.28;;;6.13;100.00
12969;BME280;6549;53.128;8.182;2024-01-30T08:07:09;102218.94;;;6.20;100.00
12969;BME280;6549;53.128;8.182;2024-01-30T08:10:11;102209.78;;;6.33;100.00
12969;BME280;6549;53.128;8.182;2024-01-30T08:13:12;102206.25;;;6.33;100.00
12969;BME280;6549;53.128;8.182;2024-01-30T08:16:12;102204.50;;;6.37;100.00
12969;BME280;6549;53.128;8.182;2024-01-30T08:19:14;102206.09;;;6.47;100.00
12969;BME280;6549;53.128;8.182;2024-01-30T08:22:15;102201.44;;;6.47;100.00
12969;BME280;6549;53.128;8.182;2024-01-30T08:25:15;102192.63;;;6.50;100.00
12969;BME280;6549;53.128;8.182;2024-01-30T08:28:15;102195.16;;;6.55;100.00
12969;BME280;6549;53.128;8.182;2024-01-30T08:31:16;102196.75;;;6.65;100.00
12969;BME280;6549;53.128;8.182;2024-01-30T08:34:16;102191.94;;;6.70;100.00
12969;BME280;6549;53.128;8.182;2024-01-30T08:37:16;102188.72;;;6.77;100.00
12969;BME280;6549;53.128;8.182;2024-01-30T08:40:17;102179.34;;;6.87;100.00
12969;BME280;6549;53.128;8.182;2024-01-30T08:43:17;102181.28;;;6.95;100.00
12969;BME280;6549;53.128;8.182;2024-01-30T08:46:18;102179.66;;;7.02;100.00
12969;BME280;6549;53.128;8.182;2024-01-30T08:49:20;102188.00;;;7.06;100.00
12969;BME280;6549;53.128;8.182;2024-01-30T08:52:20;102193.28;;;7.11;100.00
12969;BME280;6549;53.128;8.182;2024-01-30T08:55:20;102185.03;;;7.19;100.00
12969;BME280;6549;53.128;8.182;2024-01-30T08:58:21;102178.59;;;7.24;100.00
12969;BME280;6549;53.128;8.182;2024-01-30T09:01:21;102171.81;;;7.30;100.00
12969;BME280;6549;53.128;8.182;2024-01-30T09:04:22;102176.91;;;7.40;100.00
12969;BME280;6549;53.128;8.182;2024-01-30T09:07:22;102167.56;;;7.41;100.00
12969;BME280;6549;53.128;8.182;2024-01-30T09:10:22;102177.66;;;7.49;100.00
12969;BME280;6549;53.128;8.182;2024-01-30T09:13:23;102190.84;;;7.56;100.00
12969;BME280;6549;53.128;8.182;2024-01-30T09:16:23;102205.78;;;7.58;100.00
12969;BME280;6549;53.128;8.182;2024-01-30T09:19:23;102211.06;;;7.63;100.00
12969;BME280;6549;53.128;8.182;2024-01-30T09:22:24;102206.66;;;7.71;100.00
12969;BME280;6549;53.128;8.182;2024-01-30T09:25:24;102219.38;;;7.76;100.00
12969;BME280;6549;53.128;8.182;2024-01-30T09:28:25;102218.22;;;7.77;100.00
12969;BME280;6549;53.128;8.182;2024-01-30T09:31:25;102218.72;;;7.79;100.00
12969;BME280;6549;53.128;8.182;2024-01-30T09:34:25;102218.84;;;7.82;100.00
12969;BME280;6549;53.128;8.182;2024-01-30T09:37:26;102220.25;;;7.88;100.00
12969;BME280;6549;53.128;8.182;2024-01-30T09:40:26;102218.31;;;7.89;100.00
12969;BME280;6549;53.128;8.182;2024-01-30T09:43:31;102214.59;;;7.93;100.00
12969;BME280;6549;53.128;8.182;2024-01-30T09:46:33;102224.88;;;7.96;100.00
12969;BME280;6549;53.128;8.182;2024-01-30T09:49:35;102228.88;;;7.99;100.00
12969;BME280;6549;53.128;8.182;2024-01-30T09:52:35;102238.03;;;8.03;100.00
12969;BME280;6549;53.128;8.182;2024-01-30T09:55:36;102228.69;;;8.04;100.00
12969;BME280;6549;53.128;8.182;2024-01-30T09:58:37;102234.78;;;8.09;100.00
12969;BME280;6549;53.128;8.182;2024-01-30T10:01:38;102228.75;;;8.16;100.00
12969;BME280;6549;53.128;8.182;2024-01-30T10:04:39;102221.50;;;8.20;100.00
12969;BME280;6549;53.128;8.182;2024-01-30T10:07:50;102217.72;;;8.33;100.00
12969;BME280;6549;53.128;8.182;2024-01-30T10:10:50;102219.44;;;8.38;100.00
12969;BME280;6549;53.128;8.182;2024-01-30T10:13:50;102230.19;;;8.43;100.00
12969;BME280;6549;53.128;8.182;2024-01-30T10:16:51;102224.31;;;8.53;100.00
12969;BME280;6549;53.128;8.182;2024-01-30T10:19:51;102222.03;;;8.55;100.00
12969;BME280;6549;53.128;8.182;2024-01-30T10:22:52;102223.13;;;8.63;100.00
12969;BME280;6549;53.128;8.182;2024-01-30T10:25:52;102216.94;;;8.66;100.00
12969;BME280;6549;53.128;8.182;2024-01-30T10:28:52;102215.25;;;8.73;100.00
12969;BME280;6549;53.128;8.182;2024-01-30T10:32:03;102218.13;;;8.77;100.00
12969;BME280;6549;53.128;8.182;2024-01-30T10:35:03;102218.72;;;8.82;100.00
12969;BME280;6549;53.128;8.182;2024-01-30T10:38:05;102219.63;;;8.86;100.00
12969;BME280;6549;53.128;8.182;2024-01-30T10:41:11;102205.59;;;8.88;100.00
12969;BME280;6549;53.128;8.182;2024-01-30T10:44:18;102201.03;;;8.92;100.00
12969;BME280;6549;53.128;8.182;2024-01-30T10:47:25;102213.84;;;9.00;100.00
12969;BME280;6549;53.128;8.182;2024-01-30T10:50:26;102213.63;;;9.05;100.00
12969;BME280;6549;53.128;8.182;2024-01-30T10:53:28;102204.84;;;9.12;100.00
12969;BME280;6549;53.128;8.182;2024-01-30T10:56:32;102203.75;;;9.37;100.00
12969;BME280;6549;53.128;8.182;2024-01-30T10:59:33;102200.44;;;9.31;100.00
12969;BME280;6549;53.128;8.182;2024-01-30T11:02:33;102207.84;;;9.31;100.00
12969;BME280;6549;53.128;8.182;2024-01-30T11:05:34;102201.81;;;9.37;100.00
12969;BME280;6549;53.128;8.182;2024-01-30T11:08:35;102209.34;;;9.40;100.00
12969;BME280;6549;53.128;8.182;2024-01-30T11:12:12;102204.56;;;9.50;100.00
12969;BME280;6549;53.128;8.182;2024-01-30T11:15:14;102199.97;;;9.54;100.00
12969;BME280;6549;53.128;8.182;2024-01-30T11:18:29;102194.97;;;9.56;100.00
12969;BME280;6549;53.128;8.182;2024-01-30T11:21:30;102200.44;;;9.56;100.00
12969;BME280;6549;53.128;8.182;2024-01-30T11:24:30;102197.69;;;9.56;100.00
12969;BME280;6549;53.128;8.182;2024-01-30T11:27:30;102202.72;;;9.66;100.00
12969;BME280;6549;53.128;8.182;2024-01-30T11:30:32;102198.50;;;9.68;100.00
12969;BME280;6549;53.128;8.182;2024-01-30T11:33:33;102194.03;;;9.76;100.00
12969;BME280;6549;53.128;8.182;2024-01-30T11:36:34;102192.19;;;9.80;100.00
12969;BME280;6549;53.128;8.182;2024-01-30T11:39:37;102195.16;;;9.75;100.00
12969;BME280;6549;53.128;8.182;2024-01-30T11:42:38;102194.81;;;9.76;100.00
12969;BME280;6549;53.128;8.182;2024-01-30T11:45:39;102192.28;;;9.83;100.00
12969;BME280;6549;53.128;8.182;2024-01-30T11:48:41;102188.88;;;9.86;100.00
12969;BME280;6549;53.128;8.182;2024-01-30T11:51:41;102194.91;;;9.92;100.00
12969;BME280;6549;53.128;8.182;2024-01-30T11:54:41;102199.81;;;9.99;100.00
12969;BME280;6549;53.128;8.182;2024-01-30T11:57:42;102203.69;;;10.10;100.00
12969;BME280;6549;53.128;8.182;2024-01-30T12:00:55;102194.75;;;10.25;100.00
12969;BME280;6549;53.128;8.182;2024-01-30T12:03:56;102188.56;;;10.28;100.00
12969;BME280;6549;53.128;8.182;2024-01-30T12:06:57;102192.59;;;10.18;100.00
12969;BME280;6549;53.128;8.182;2024-01-30T12:09:57;102186.16;;;10.14;100.00
12969;BME280;6549;53.128;8.182;2024-01-30T12:12:57;102183.41;;;10.14;100.00
12969;BME280;6549;53.128;8.182;2024-01-30T12:15:59;102189.94;;;10.10;100.00
12969;BME280;6549;53.128;8.182;2024-01-30T12:19:00;102188.00;;;10.10;100.00
12969;BME280;6549;53.128;8.182;2024-01-30T12:22:02;102187.91;;;10.07;100.00
12969;BME280;6549;53.128;8.182;2024-01-30T12:25:10;102190.41;;;10.12;100.00
12969;BME280;6549;53.128;8.182;2024-01-30T12:28:10;102185.25;;;10.10;100.00
12969;BME280;6549;53.128;8.182;2024-01-30T12:31:11;102177.00;;;10.10;100.00
12969;BME280;6549;53.128;8.182;2024-01-30T12:34:14;102176.09;;;10.18;100.00
12969;BME280;6549;53.128;8.182;2024-01-30T12:37:16;102183.09;;;10.16;100.00
12969;BME280;6549;53.128;8.182;2024-01-30T12:40:21;102179.56;;;10.15;100.00
12969;BME280;6549;53.128;8.182;2024-01-30T12:43:23;102172.78;;;10.13;100.00
12969;BME280;6549;53.128;8.182;2024-01-30T12:46:28;102177.91;;;10.14;100.00
12969;BME280;6549;53.128;8.182;2024-01-30T12:49:29;102172.31;;;10.11;100.00
12969;BME280;6549;53.128;8.182;2024-01-30T12:52:29;102175.06;;;10.11;100.00
12969;BME280;6549;53.128;8.182;2024-01-30T12:55:30;102171.41;;;10.07;100.00
12969;BME280;6549;53.128;8.182;2024-01-30T12:58:30;102170.63;;;10.06;100.00
12969;BME280;6549;53.128;8.182;2024-01-30T13:01:30;102173.03;;;10.08;100.00
12969;BME280;6549;53.128;8.182;2024-01-30T13:04:31;102173.84;;;10.08;100.00
12969;BME280;6549;53.128;8.182;2024-01-30T13:07:31;102180.47;;;10.07;100.00
12969;BME280;6549;53.128;8.182;2024-01-30T13:10:32;102173.84;;;10.08;100.00
12969;BME280;6549;53.128;8.182;2024-01-30T13:13:32;102182.50;;;10.10;100.00
12969;BME280;6549;53.128;8.182;2024-01-30T13:16:33;102188.91;;;10.14;100.00
12969;BME280;6549;53.128;8.182;2024-01-30T13:19:33;102176.09;;;10.18;100.00
12969;BME280;6549;53.128;8.182;2024-01-30T13:22:34;102184.34;;;10.18;100.00
12969;BME280;6549;53.128;8.182;2024-01-30T13:25:34;102188.59;;;10.16;100.00
12969;BME280;6549;53.128;8.182;2024-01-30T13:28:34;102187.47;;;10.17;100.00
12969;BME280;6549;53.128;8.182;2024-01-30T13:31:35;102181.59;;;10.18;100.00
12969;BME280;6549;53.128;8.182;2024-01-30T13:34:35;102176.31;;;10.25;100.00
12969;BME280;6549;53.128;8.182;2024-01-30T13:37:35;102181.44;;;10.27;100.00
12969;BME280;6549;53.128;8.182;2024-01-30T13:40:36;102189.97;;;10.22;100.00
12969;BME280;6549;53.128;8.182;2024-01-30T13:43:36;102184.56;;;10.25;100.00
12969;BME280;6549;53.128;8.182;2024-01-30T13:46:36;102171.50;;;10.22;100.00
12969;BME280;6549;53.128;8.182;2024-01-30T13:49:37;102180.22;;;10.24;100.00
12969;BME280;6549;53.128;8.182;2024-01-30T13:52:37;102171.25;;;10.27;100.00
12969;BME280;6549;53.128;8.182;2024-01-30T13:55:37;102170.59;;;10.30;100.00
12969;BME280;6549;53.128;8.182;2024-01-30T13:58:39;102162.19;;;10.39;100.00
12969;BME280;6549;53.128;8.182;2024-01-30T14:01:40;102159.97;;;10.45;100.00
12969;BME280;6549;53.128;8.182;2024-01-30T14:04:40;102169.25;;;10.52;100.00
12969;BME280;6549;53.128;8.182;2024-01-30T14:07:40;102158.59;;;10.51;100.00
12969;BME280;6549;53.128;8.182;2024-01-30T14:10:43;102159.47;;;10.55;100.00
12969;BME280;6549;53.128;8.182;2024-01-30T14:13:43;102159.31;;;10.63;100.00
12969;BME280;6549;53.128;8.182;2024-01-30T14:16:44;102161.38;;;10.66;100.00
12969;BME280;6549;53.128;8.182;2024-01-30T14:19:44;102163.75;;;10.68;100.00
12969;BME280;6549;53.128;8.182;2024-01-30T14:22:45;102169.34;;;10.71;100.00
12969;BME280;6549;53.128;8.182;2024-01-30T14:25:46;102177.16;;;10.69;100.00
12969;BME280;6549;53.128;8.182;2024-01-30T14:28:46;102175.91;;;10.67;100.00
12969;BME280;6549;53.128;8.182;2024-01-30T14:31:46;102172.38;;;10.66;100.00
12969;BME280;6549;53.128;8.182;2024-01-30T14:34:47;102171.56;;;10.66;100.00
12969;BME280;6549;53.128;8.182;2024-01-30T14:37:47;102180.88;;;10.61;100.00
12969;BME280;6549;53.128;8.182;2024-01-30T14:40:47;102172.50;;;10.58;100.00
12969;BME280;6549;53.128;8.182;2024-01-30T14:43:48;102168.53;;;10.55;100.00
12969;BME280;6549;53.128;8.182;2024-01-30T14:46:48;102171.63;;;10.54;100.00
12969;BME280;6549;53.128;8.182;2024-01-30T14:49:49;102168.88;;;10.54;100.00
12969;BME280;6549;53.128;8.182;2024-01-30T14:52:49;102173.94;;;10.52;100.00
12969;BME280;6549;53.128;8.182;2024-01-30T14:55:50;102174.63;;;10.49;100.00
12969;BME280;6549;53.128;8.182;2024-01-30T14:58:50;102183.66;;;10.49;100.00
12969;BME280;6549;53.128;8.182;2024-01-30T15:01:51;102183.31;;;10.51;100.00
12969;BME280;6549;53.128;8.182;2024-01-30T15:04:51;102193.88;;;10.49;100.00
12969;BME280;6549;53.128;8.182;2024-01-30T15:07:51;102188.63;;;10.44;100.00
12969;BME280;6549;53.128;8.182;2024-01-30T15:10:52;102198.00;;;10.43;100.00
12969;BME280;6549;53.128;8.182;2024-01-30T15:13:52;102212.00;;;10.38;100.00
12969;BME280;6549;53.128;8.182;2024-01-30T15:16:53;102212.25;;;10.32;100.00
12969;BME280;6549;53.128;8.182;2024-01-30T15:19:53;102226.34;;;10.31;100.00
12969;BME280;6549;53.128;8.182;2024-01-30T15:22:53;102232.22;;;10.17;100.00
12969;BME280;6549;53.128;8.182;2024-01-30T15:25:54;102230.47;;;10.13;100.00
12969;BME280;6549;53.128;8.182;2024-01-30T15:28:54;102230.34;;;10.09;100.00
12969;BME280;6549;53.128;8.182;2024-01-30T15:31:55;102227.06;;;10.04;100.00
12969;BME280;6549;53.128;8.182;2024-01-30T15:34:55;102229.94;;;9.95;100.00
12969;BME280;6549;53.128;8.182;2024-01-30T15:37:56;102240.00;;;9.91;100.00
12969;BME280;6549;53.128;8.182;2024-01-30T15:40:57;102234.94;;;9.93;100.00
12969;BME280;6549;53.128;8.182;2024-01-30T15:43:57;102248.25;;;9.91;100.00
12969;BME280;6549;53.128;8.182;2024-01-30T15:46:58;102244.56;;;9.87;100.00
12969;BME280;6549;53.128;8.182;2024-01-30T15:49:59;102245.03;;;9.89;100.00
12969;BME280;6549;53.128;8.182;2024-01-30T15:52:59;102247.31;;;9.87;100.00
12969;BME280;6549;53.128;8.182;2024-01-30T15:55:59;102255.31;;;9.80;100.00